Time;durP1;ratioP1;P1;durP2;ratioP2;P2;SDS_P1;SDS_P2;PMS_P1;PMS_P2;Temp;Humidity;BMP_temperature;BMP_pressure;BME280_temperature;BME280_humidity;BME280_pressure;Samples;Min_cycle;Max_cycle;Signal;HPM_P1;HPM_P2
2022/10/09 00:00:26;;;;;;;24.85;17.73;;;;;;;26.50;77.13;98566.53;4866860;29;20492;-71
2022/10/09 00:03:22;;;;;;;26.70;20.05;;;;;;;26.46;76.57;98565.56;4873269;29;20056;-72
2022/10/09 00:05:58;;;;;;;23.92;18.02;;;;;;;26.44;76.76;98567.81;4873597;29;20072;-71
2022/10/09 00:08:53;;;;;;;27.50;18.52;;;;;;;26.36;76.98;98561.19;4857904;29;20059;-69
2022/10/09 00:11:31;;;;;;;28.42;17.90;;;;;;;26.59;76.22;98561.88;4855814;29;20124;-69
2022/10/09 00:14:26;;;;;;;27.83;18.25;;;;;;;26.38;76.96;98562.47;4873468;29;20747;-69
2022/10/09 00:17:02;;;;;;;24.70;18.00;;;;;;;26.35;76.54;98574.13;4872311;29;20126;-70
2022/10/09 00:19:57;;;;;;;25.40;18.45;;;;;;;26.46;76.60;98571.06;4872509;29;20049;-69
2022/10/09 00:22:46;;;;;;;23.55;16.83;;;;;;;26.59;76.42;98586.63;4873226;29;20065;-71
2022/10/09 00:25:35;;;;;;;23.52;16.83;;;;;;;26.59;76.34;98585.81;4873600;29;20056;-71
2022/10/09 00:28:27;;;;;;;22.60;15.35;;;;;;;26.67;75.99;98594.09;4872818;29;20053;-70
2022/10/09 00:31:13;;;;;;;23.35;16.55;;;;;;;26.58;76.26;98596.00;4859311;29;20461;-70
2022/10/09 00:34:02;;;;;;;25.02;15.73;;;;;;;26.55;76.25;98599.41;4870932;29;20189;-70
2022/10/09 00:36:44;;;;;;;25.02;16.75;;;;;;;26.45;76.56;98591.47;4856591;29;20601;-69
2022/10/09 00:39:40;;;;;;;26.23;15.98;;;;;;;26.52;76.52;98602.78;4856385;29;20052;-70
2022/10/09 00:42:16;;;;;;;21.20;15.68;;;;;;;26.48;76.21;98601.81;4874206;29;20052;-71
2022/10/09 00:45:05;;;;;;;23.27;16.88;;;;;;;26.32;76.48;98598.72;4873557;29;20439;-70
2022/10/09 00:47:54;;;;;;;25.45;17.80;;;;;;;26.00;77.42;98611.75;4856233;29;20636;-70
2022/10/09 00:50:57;;;;;;;29.13;18.50;;;;;;;26.17;77.07;98602.72;4854348;29;20074;-70
2022/10/09 00:53:39;;;;;;;25.73;17.17;;;;;;;26.40;76.88;98608.94;4854669;29;20065;-70
2022/10/09 00:56:36;;;;;;;25.73;16.98;;;;;;;26.29;77.09;98602.94;4860324;29;20068;-70
2022/10/09 00:59:12;;;;;;;25.90;17.40;;;;;;;26.44;76.75;98611.84;4856443;29;20623;-70
2022/10/09 01:02:01;;;;;;;25.50;18.95;;;;;;;26.41;76.41;98612.47;4876585;29;20057;-70
2022/10/09 01:04:50;;;;;;;21.23;16.23;;;;;;;26.39;76.50;98610.06;4872597;29;20561;-70
2022/10/09 01:07:57;;;;;;;32.00;18.83;;;;;;;26.50;76.15;98614.13;4873207;29;20140;-71
2022/10/09 01:10:57;;;;;;;25.85;18.67;;;;;;;26.57;75.77;98616.41;4873239;29;20145;-70
2022/10/09 01:13:57;;;;;;;27.13;16.83;;;;;;;26.62;76.00;98624.53;4873519;29;20061;-69
2022/10/09 01:16:47;;;;;;;23.73;16.88;;;;;;;26.74;75.89;98623.91;4874579;29;20045;-70
2022/10/09 01:20:19;;;;;;;28.77;17.20;;;;;;;26.73;75.34;98630.53;4870553;29;20049;-70
2022/10/09 01:23:31;;;;;;;23.92;16.95;;;;;;;26.58;75.92;98637.31;4887178;29;20062;-70
2022/10/09 01:26:29;;;;;;;31.65;17.60;;;;;;;26.53;76.05;98637.44;4845924;29;20049;-70
2022/10/09 01:29:14;;;;;;;27.42;16.05;;;;;;;26.83;75.66;98641.22;4859460;29;20068;-71
2022/10/09 01:32:05;;;;;;;25.67;16.77;;;;;;;26.94;74.96;98644.44;4879994;29;20618;-71
2022/10/09 01:35:04;;;;;;;27.98;17.58;;;;;;;26.80;75.36;98652.88;4861624;29;20048;-71
2022/10/09 01:37:43;;;;;;;26.55;17.42;;;;;;;26.67;75.38;98654.63;4878015;29;20040;-70
2022/10/09 01:40:32;;;;;;;21.80;16.25;;;;;;;26.93;75.46;98656.63;4877359;29;20500;-71
2022/10/09 01:43:13;;;;;;;25.83;18.23;;;;;;;26.52;76.25;98663.34;4856853;29;20065;-72
2022/10/09 01:46:28;;;;;;;26.55;16.98;;;;;;;26.78;75.75;98666.16;4857375;29;20471;-70
2022/10/09 01:49:37;;;;;;;28.33;17.73;;;;;;;26.95;75.33;98671.69;4856656;29;20158;-70
2022/10/09 01:52:50;;;;;;;26.42;16.67;;;;;;;27.02;74.68;98678.63;4842747;29;20057;-71
2022/10/09 01:55:46;;;;;;;21.98;16.13;;;;;;;27.25;74.02;98684.84;4857246;29;20150;-71
2022/10/09 01:58:52;;;;;;;22.73;16.98;;;;;;;26.97;74.96;98687.88;4869004;29;20059;-70
2022/10/09 02:01:49;;;;;;;24.17;16.60;;;;;;;27.14;74.02;98685.13;4868680;29;20073;-71
2022/10/09 02:04:26;;;;;;;25.10;17.88;;;;;;;26.89;74.75;98688.69;4875048;29;20059;-71
2022/10/09 02:07:23;;;;;;;24.73;19.10;;;;;;;26.98;74.79;98697.78;4873635;29;20056;-71
2022/10/09 02:10:02;;;;;;;29.42;20.85;;;;;;;26.83;74.77;98682.53;4874412;29;20565;-69
2022/10/09 02:12:59;;;;;;;22.50;17.95;;;;;;;27.15;74.60;98689.50;4876671;29;20059;-70
2022/10/09 02:16:06;;;;;;;26.85;18.52;;;;;;;27.35;72.83;98695.53;4874551;29;20130;-71
2022/10/09 02:19:01;;;;;;;25.75;18.15;;;;;;;27.49;72.43;98701.66;4874940;29;20053;-70
2022/10/09 02:22:05;;;;;;;26.45;17.23;;;;;;;27.44;72.58;98693.56;4838305;29;20053;-71
2022/10/09 02:24:43;;;;;;;28.88;17.50;;;;;;;27.57;71.78;98707.47;4837925;29;20053;-71
2022/10/09 02:27:39;;;;;;;30.13;21.02;;;;;;;27.30;71.68;98707.50;4840379;29;20696;-70
2022/10/09 02:30:16;;;;;;;32.17;20.95;;;;;;;27.28;72.65;98707.03;4836962;29;20076;-71
2022/10/09 02:33:05;;;;;;;37.15;21.27;;;;;;;27.44;72.43;98706.53;4838299;29;20057;-70
2022/10/09 02:35:54;;;;;;;27.52;20.23;;;;;;;27.45;71.97;98713.66;4838115;29;20162;-70
2022/10/09 02:38:49;;;;;;;27.20;18.50;;;;;;;27.65;70.92;98717.69;4837699;29;20125;-70
2022/10/09 02:41:26;;;;;;;26.88;18.48;;;;;;;27.65;71.05;98720.44;4827042;29;20049;-70
2022/10/09 02:44:21;;;;;;;30.35;19.63;;;;;;;27.44;71.38;98732.16;4836662;29;20060;-70
2022/10/09 02:46:57;;;;;;;31.00;20.63;;;;;;;27.62;70.88;98726.63;4838338;29;20181;-71
2022/10/09 02:49:52;;;;;;;32.05;19.27;;;;;;;27.41;71.10;98726.47;4836359;29;20042;-71
2022/10/09 02:52:28;;;;;;;28.67;17.85;;;;;;;27.49;70.91;98731.97;4837772;29;20102;-70
2022/10/09 02:55:23;;;;;;;28.67;17.80;;;;;;;27.79;69.96;98732.09;4837488;29;20050;-70
2022/10/09 02:57:59;;;;;;;26.90;18.63;;;;;;;27.43;71.93;98736.03;4837970;29;20073;-71
2022/10/09 03:00:56;;;;;;;26.40;17.73;;;;;;;27.67;70.39;98735.53;4835725;29;20410;-70
2022/10/09 03:03:32;;;;;;;27.55;17.30;;;;;;;27.73;69.44;98730.66;4837321;29;20070;-71
2022/10/09 03:06:24;;;;;;;22.88;17.17;;;;;;;27.75;70.40;98744.13;4878650;29;20696;-71
2022/10/09 03:09:06;;;;;;;25.52;16.67;;;;;;;27.85;69.76;98744.56;4855375;29;20427;-71
2022/10/09 03:12:01;;;;;;;27.38;17.10;;;;;;;28.20;69.25;98738.97;4836970;29;20053;-71
2022/10/09 03:14:37;;;;;;;26.10;16.95;;;;;;;28.05;69.34;98742.28;4837068;29;20062;-72
2022/10/09 03:17:32;;;;;;;23.27;16.70;;;;;;;28.04;68.86;98744.22;4837139;29;20061;-71
2022/10/09 03:20:16;;;;;;;30.02;17.02;;;;;;;28.33;68.59;98750.13;4853850;29;20077;-71
2022/10/09 03:23:04;;;;;;;28.40;17.17;;;;;;;28.26;68.66;98748.72;4873592;29;20061;-71
2022/10/09 03:26:03;;;;;;;26.85;16.63;;;;;;;28.44;66.98;98741.16;4873795;29;20055;-70
2022/10/09 03:28:54;;;;;;;23.73;15.65;;;;;;;28.54;66.38;98748.28;4873374;29;20064;-70
2022/10/09 03:31:43;;;;;;;23.65;16.05;;;;;;;28.64;66.80;98752.59;4874233;29;20084;-72
2022/10/09 03:34:33;;;;;;;22.92;13.55;;;;;;;28.72;64.12;98748.19;4880191;29;20048;-70
2022/10/09 03:37:28;;;;;;;23.05;14.00;;;;;;;28.33;65.63;98752.91;4876588;29;20063;-72
2022/10/09 03:40:05;;;;;;;23.10;13.85;;;;;;;28.22;65.63;98755.19;4878220;29;20068;-72
2022/10/09 03:42:59;;;;;;;19.35;13.98;;;;;;;28.73;65.35;98749.81;4857866;29;20789;-71
2022/10/09 03:45:39;;;;;;;22.42;13.98;;;;;;;28.89;63.11;98750.84;4873599;29;20060;-71
2022/10/09 03:48:28;;;;;;;20.85;13.88;;;;;;;28.82;63.70;98742.28;4856879;29;20056;-70
2022/10/09 03:51:17;;;;;;;22.30;13.27;;;;;;;28.73;65.09;98744.28;4856396;29;20053;-71
2022/10/09 03:53:59;;;;;;;17.85;13.48;;;;;;;29.13;64.27;98744.69;4857503;29;20053;-70
2022/10/09 03:56:48;;;;;;;21.92;14.77;;;;;;;29.07;62.04;98740.50;4841004;29;20048;-71
2022/10/09 03:59:30;;;;;;;21.33;12.57;;;;;;;28.54;64.08;98747.47;4854770;29;20160;-71
2022/10/09 04:02:19;;;;;;;23.60;12.75;;;;;;;29.16;62.68;98745.97;4840861;29;20086;-71
2022/10/09 04:05:01;;;;;;;17.95;12.20;;;;;;;28.96;63.10;98744.78;4864829;29;20057;-71
2022/10/09 04:07:50;;;;;;;26.13;12.80;;;;;;;29.20;61.80;98756.03;4873300;29;20541;-70
2022/10/09 04:10:32;;;;;;;18.65;12.18;;;;;;;29.78;60.46;98747.09;4873838;29;20172;-70
2022/10/09 04:13:21;;;;;;;21.15;11.57;;;;;;;29.30;61.72;98741.00;4856175;29;20395;-70
2022/10/09 04:16:04;;;;;;;16.27;11.07;;;;;;;29.95;60.49;98746.91;4890985;29;20418;-70
2022/10/09 04:18:53;;;;;;;15.82;10.70;;;;;;;30.08;59.87;98747.75;4880011;29;20157;-70
2022/10/09 04:21:41;;;;;;;;;;;;;;;29.86;60.79;98754.47;4867195;29;20710;-69
2022/10/09 04:24:30;;;;;;;19.40;9.60;;;;;;;29.82;58.57;98748.81;4872741;29;20364;-70
2022/10/09 04:27:13;;;;;;;13.23;9.35;;;;;;;30.33;59.23;98747.81;4872301;29;20129;-71
2022/10/09 04:30:04;;;;;;;14.43;10.07;;;;;;;30.49;58.35;98750.69;4857348;29;20096;-70
2022/10/09 04:32:52;;;;;;;18.85;9.30;;;;;;;30.67;59.50;98746.53;4884005;29;20092;-72
2022/10/09 04:35:43;;;;;;;23.35;10.30;;;;;;;30.21;57.88;98749.38;4887890;29;20052;-70
2022/10/09 04:38:32;;;;;;;17.17;9.38;;;;;;;30.46;58.52;98743.91;4872660;29;20109;-71
2022/10/09 04:41:21;;;;;;;11.30;8.38;;;;;;;30.84;57.59;98742.72;4872730;29;20628;-71
2022/10/09 04:44:06;;;;;;;13.07;8.75;;;;;;;30.95;56.97;98726.44;4869876;29;20786;-70
2022/10/09 04:46:55;;;;;;;13.32;6.78;;;;;;;30.46;56.94;98732.81;4871890;29;20126;-72
2022/10/09 04:49:39;;;;;;;20.05;6.22;;;;;;;30.78;55.70;98727.47;4886690;29;20069;-72
2022/10/09 04:52:38;;;;;;;11.98;6.57;;;;;;;31.18;55.55;98732.28;4872005;29;20537;-70
2022/10/09 04:55:14;;;;;;;7.18;5.25;;;;;;;30.99;54.33;98730.94;4872881;29;20060;-72
2022/10/09 04:58:20;;;;;;;7.18;5.10;;;;;;;31.47;54.72;98728.41;4860302;29;20067;-71
2022/10/09 05:00:55;;;;;;;9.25;5.22;;;;;;;31.55;56.33;98726.63;4867257;29;20049;-72
2022/10/09 05:03:50;;;;;;;14.05;7.63;;;;;;;31.38;54.93;98722.97;4875135;29;20063;-71
2022/10/09 05:06:26;;;;;;;12.65;7.20;;;;;;;31.97;53.69;98723.41;4876707;29;20057;-72
2022/10/09 05:09:16;;;;;;;15.35;7.25;;;;;;;31.79;54.61;98717.38;4863518;29;20060;-70
2022/10/09 05:12:06;;;;;;;10.00;7.13;;;;;;;31.95;54.66;98722.94;4874938;29;20063;-70
2022/10/09 05:14:48;;;;;;;11.05;6.93;;;;;;;31.61;53.16;98723.25;4874723;29;20478;-70
2022/10/09 05:17:38;;;;;;;9.23;6.10;;;;;;;32.01;54.20;98715.97;4873626;29;20080;-66
2022/10/09 05:20:28;;;;;;;14.13;6.47;;;;;;;31.63;54.34;98717.34;4855920;29;20056;-66
2022/10/09 05:23:24;;;;;;;7.75;5.93;;;;;;;32.02;52.39;98706.50;4865267;29;20725;-66
2022/10/09 05:26:03;;;;;;;9.57;6.00;;;;;;;31.61;52.02;98703.03;4873418;29;20045;-65
2022/10/09 05:28:52;;;;;;;7.68;5.72;;;;;;;31.38;52.18;98703.56;4874556;29;20457;-66
2022/10/09 05:31:42;;;;;;;10.52;6.90;;;;;;;31.54;52.59;98705.59;4854957;29;20067;-65
2022/10/09 05:34:29;;;;;;;9.07;5.93;;;;;;;32.52;51.10;98701.34;4852749;29;20572;-65
2022/10/09 05:37:19;;;;;;;11.77;5.93;;;;;;;32.35;52.17;98705.31;4861971;29;20053;-65
2022/10/09 05:40:02;;;;;;;13.20;7.20;;;;;;;31.84;51.97;98710.75;4855037;29;20049;-66
2022/10/09 05:42:54;;;;;;;9.90;7.05;;;;;;;32.31;54.38;98704.44;4863697;29;20358;-65
2022/10/09 05:45:36;;;;;;;12.48;7.55;;;;;;;31.89;52.80;98705.75;4854875;29;20057;-68
2022/10/09 05:48:26;;;;;;;13.48;7.68;;;;;;;32.37;53.75;98703.00;4853948;29;20130;-67
2022/10/09 05:51:17;;;;;;;11.30;7.50;;;;;;;32.21;54.41;98708.56;4853894;29;20744;-68
2022/10/09 05:54:06;;;;;;;13.65;7.35;;;;;;;32.53;54.48;98709.34;4857722;29;20165;-65
2022/10/09 05:56:48;;;;;;;13.35;7.82;;;;;;;32.18;53.86;98698.97;4860809;29;20386;-65
2022/10/09 05:59:37;;;;;;;15.93;8.60;;;;;;;31.60;53.98;98696.69;4853699;29;20073;-65
2022/10/09 06:02:19;;;;;;;14.23;8.35;;;;;;;32.30;53.00;98689.75;4857177;29;20137;-63
2022/10/09 06:05:09;;;;;;;14.90;7.97;;;;;;;32.62;52.23;98684.19;4861277;29;20042;-69
2022/10/09 06:07:50;;;;;;;13.40;8.25;;;;;;;32.69;52.35;98680.75;4856897;29;20073;-67
2022/10/09 06:10:39;;;;;;;12.43;9.02;;;;;;;32.53;50.59;98678.78;4852887;29;20128;-66
2022/10/09 06:13:21;;;;;;;15.50;9.00;;;;;;;32.55;54.05;98684.78;4860231;29;20068;-67
2022/10/09 06:16:11;;;;;;;17.58;10.02;;;;;;;32.15;54.34;98682.22;4520134;29;10000088;-66
2022/10/09 06:19:08;;;;;;;14.48;9.40;;;;;;;31.53;53.73;98679.03;4854895;29;20060;-71
2022/10/09 06:21:50;;;;;;;15.68;9.57;;;;;;;32.35;53.17;98681.16;4867865;29;20049;-64
2022/10/09 06:24:39;;;;;;;15.23;11.45;;;;;;;32.14;52.83;98680.59;4874335;29;20049;-70
2022/10/09 06:27:21;;;;;;;17.35;12.35;;;;;;;32.20;52.50;98676.41;4875167;29;20119;-67
2022/10/09 06:30:10;;;;;;;15.18;11.50;;;;;;;32.41;51.49;98675.28;4872684;29;20153;-67
2022/10/09 06:32:53;;;;;;;17.70;12.00;;;;;;;32.62;52.72;98669.47;4874427;29;20049;-66
2022/10/09 06:35:41;;;;;;;19.88;11.30;;;;;;;32.47;54.11;98671.09;4874547;29;20114;-66
2022/10/09 06:38:26;;;;;;;17.80;12.48;;;;;;;32.32;53.73;98662.41;4873814;29;20651;-65
2022/10/09 06:41:20;;;;;;;23.05;11.52;;;;;;;32.76;51.10;98656.69;4874813;29;20052;-64
2022/10/09 06:44:05;;;;;;;19.25;12.65;;;;;;;32.93;53.47;98649.13;4883966;29;20524;-64
2022/10/09 06:46:57;;;;;;;24.73;12.23;;;;;;;32.59;52.20;98643.22;4881577;29;20052;-64
2022/10/09 06:49:38;;;;;;;18.90;12.18;;;;;;;32.53;53.60;98637.09;4877364;29;20053;-67
2022/10/09 06:52:27;;;;;;;18.88;12.60;;;;;;;32.58;53.33;98638.84;4877301;29;20057;-65
2022/10/09 06:55:09;;;;;;;20.13;14.57;;;;;;;32.62;52.55;98625.81;4885923;29;20076;-67
2022/10/09 06:57:58;;;;;;;20.05;13.48;;;;;;;32.55;53.25;98626.44;4874076;29;20061;-70
2022/10/09 07:00:40;;;;;;;24.67;15.68;;;;;;;32.70;52.39;98618.44;4873515;29;20052;-66
2022/10/09 07:03:30;;;;;;;21.42;15.60;;;;;;;32.32;53.50;98620.75;4873678;29;20419;-66
2022/10/09 07:06:17;;;;;;;27.73;15.00;;;;;;;32.51;52.35;98614.44;4873076;29;20064;-66
2022/10/09 07:09:10;;;;;;;21.48;14.68;;;;;;;32.34;53.97;98606.53;4873183;29;20049;-65
2022/10/09 07:11:52;;;;;;;24.73;15.55;;;;;;;32.73;52.99;98606.59;4874287;29;20053;-67
2022/10/09 07:14:42;;;;;;;26.65;15.52;;;;;;;32.59;51.64;98595.97;4873567;29;20080;-66
2022/10/09 07:17:25;;;;;;;24.30;14.90;;;;;;;32.57;53.62;98601.09;4870056;29;20072;-65
2022/10/09 07:20:22;;;;;;;31.95;20.38;;;;;;;32.26;52.69;98591.66;4861381;29;20283;-65
2022/10/09 07:23:16;;;;;;;33.85;21.55;;;;;;;32.18;54.03;98593.47;4877916;29;20132;-67
2022/10/09 07:25:52;;;;;;;32.55;22.20;;;;;;;32.23;53.75;98589.59;4864357;29;20057;-65
2022/10/09 07:28:42;;;;;;;26.73;20.83;;;;;;;32.05;53.69;98582.84;4857010;29;20048;-67
2022/10/09 07:31:24;;;;;;;30.75;21.17;;;;;;;32.33;54.13;98572.41;4851262;29;20053;-66
2022/10/09 07:34:20;;;;;;;33.13;21.80;;;;;;;32.25;54.39;98576.16;4870460;29;20498;-66
2022/10/09 07:36:56;;;;;;;37.40;22.00;;;;;;;32.36;55.31;98568.06;4872269;29;20128;-66
2022/10/09 07:39:51;;;;;;;33.42;20.88;;;;;;;32.15;53.32;98566.41;4869300;29;20055;-65
2022/10/09 07:42:27;;;;;;;32.15;21.00;;;;;;;32.49;53.63;98566.78;4853942;29;20128;-65
2022/10/09 07:45:29;;;;;;;31.48;22.20;;;;;;;31.47;54.19;98563.94;4623028;29;10000698;-67
2022/10/09 07:48:12;;;;;;;31.80;22.08;;;;;;;32.09;54.98;98556.78;4866520;29;20355;-66
2022/10/09 07:51:30;;;;;;;30.08;21.42;;;;;;;31.64;54.79;98555.25;4867636;29;20052;-67
2022/10/09 07:54:20;;;;;;;32.30;22.17;;;;;;;32.05;53.97;98538.44;4854947;29;20097;-66
2022/10/09 07:57:02;;;;;;;30.65;22.70;;;;;;;32.03;52.82;98540.78;4876815;29;20048;-68
2022/10/09 07:59:50;;;;;;;28.15;21.52;;;;;;;32.58;53.27;98538.81;4874066;29;20497;-64
2022/10/09 08:02:32;;;;;;;33.58;21.30;;;;;;;32.60;53.16;98536.47;4880199;29;20117;-65
2022/10/09 08:05:22;;;;;;;35.58;21.67;;;;;;;31.58;53.39;98534.50;4882225;29;20052;-65
2022/10/09 08:08:05;;;;;;;30.38;22.42;;;;;;;31.83;53.77;98528.75;4856192;29;20108;-66
2022/10/09 08:10:54;;;;;;;36.78;23.38;;;;;;;31.94;52.94;98519.50;4873297;29;20188;-66
2022/10/09 08:13:37;;;;;;;34.17;22.23;;;;;;;32.34;52.84;98518.44;4874600;29;20105;-66
2022/10/09 08:16:29;;;;;;;34.53;22.65;;;;;;;32.07;53.65;98511.91;4859922;29;20067;-66
2022/10/09 08:19:10;;;;;;;38.88;23.88;;;;;;;31.96;53.28;98513.59;4886484;29;20059;-66
2022/10/09 08:22:06;;;;;;;31.92;22.60;;;;;;;31.69;54.44;98507.03;4885579;29;20056;-65
2022/10/09 08:24:54;;;;;;;33.80;23.27;;;;;;;32.06;56.28;98509.50;4862963;29;20048;-66
2022/10/09 08:27:43;;;;;;;36.83;23.67;;;;;;;31.99;55.08;98507.34;4861984;29;20492;-65
2022/10/09 08:30:26;;;;;;;37.17;23.27;;;;;;;32.00;54.12;98509.72;4889273;29;20147;-65
2022/10/09 08:33:19;;;;;;;38.97;23.65;;;;;;;31.67;55.12;98503.81;4899297;29;20061;-65
2022/10/09 08:36:06;;;;;;;40.03;24.45;;;;;;;31.26;56.65;98492.06;4887810;29;20066;-64
2022/10/09 08:38:56;;;;;;;36.45;24.98;;;;;;;31.59;57.24;98494.53;4885188;29;20056;-65
2022/10/09 08:41:41;;;;;;;;;;;;;;;32.01;57.81;98485.56;4876079;29;20056;-66
2022/10/09 08:44:47;;;;;;;34.60;22.63;;;;;;;31.84;54.49;98485.97;4875818;29;19927;-66
2022/10/09 08:47:35;;;;;;;34.60;23.15;;;;;;;31.73;54.60;98480.97;4876113;29;20052;-64
2022/10/09 08:50:27;;;;;;;32.60;22.30;;;;;;;31.54;54.89;98473.41;4846490;29;20569;-66
2022/10/09 08:53:37;;;;;;;33.30;22.45;;;;;;;32.20;54.52;98470.94;4876161;29;20080;-65
2022/10/09 08:56:28;;;;;;;35.70;24.20;;;;;;;31.73;54.47;98466.31;4876144;29;20121;-66
2022/10/09 08:59:12;;;;;;;33.05;24.73;;;;;;;32.10;53.03;98458.44;4859772;29;20646;-66
2022/10/09 09:02:20;;;;;;;34.25;24.10;;;;;;;32.31;54.23;98458.09;4876240;29;20049;-65
2022/10/09 09:05:13;;;;;;;39.72;26.10;;;;;;;32.38;53.20;98458.22;4876081;29;20839;-66
2022/10/09 09:08:09;;;;;;;46.65;27.17;;;;;;;32.36;53.35;98460.56;4872635;29;20139;-65
2022/10/09 09:11:21;;;;;;;40.50;25.70;;;;;;;32.54;53.03;98447.03;4877529;29;20048;-64
2022/10/09 09:14:15;;;;;;;37.13;25.10;;;;;;;32.20;52.87;98445.97;4895095;29;20052;-65
2022/10/09 09:17:19;;;;;;;34.95;22.88;;;;;;;32.45;51.94;98445.66;4894678;29;20056;-65
2022/10/09 09:20:00;;;;;;;31.70;22.98;;;;;;;32.44;52.20;98436.50;4880921;29;20072;-65
2022/10/09 09:22:56;;;;;;;33.78;22.85;;;;;;;32.42;52.85;98441.63;4857537;29;20734;-65
2022/10/09 09:25:38;;;;;;;31.83;23.10;;;;;;;32.55;51.78;98429.19;4857952;29;20053;-66
2022/10/09 09:28:40;;;;;;;42.85;22.33;;;;;;;32.39;52.66;98426.50;4865506;29;20650;-65
2022/10/09 09:31:28;;;;;;;27.58;19.92;;;;;;;31.91;54.16;98427.84;4875904;29;20053;-65
2022/10/09 09:34:44;;;;;;;29.58;17.60;;;;;;;32.44;54.57;98422.63;4876041;29;20052;-66
2022/10/09 09:37:20;;;;;;;30.85;19.23;;;;;;;32.38;54.16;98429.66;4874514;29;20060;-65
2022/10/09 09:40:21;;;;;;;26.40;20.02;;;;;;;32.06;53.89;98420.66;4875527;29;20140;-65
2022/10/09 09:43:17;;;;;;;28.00;18.70;;;;;;;32.24;53.41;98423.81;4839206;29;20114;-65
2022/10/09 09:46:20;;;;;;;27.40;20.08;;;;;;;32.42;53.05;98418.63;4839344;29;20062;-64
2022/10/09 09:48:56;;;;;;;31.73;19.83;;;;;;;32.53;54.12;98420.41;4850148;29;20049;-65
2022/10/09 09:51:50;;;;;;;27.17;20.00;;;;;;;32.43;53.28;98415.47;4856438;29;20045;-65
2022/10/09 09:54:41;;;;;;;28.25;20.95;;;;;;;32.44;52.75;98414.28;4856978;29;20059;-65
2022/10/09 09:57:37;;;;;;;31.08;21.05;;;;;;;32.62;52.60;98419.41;4856769;29;20716;-65
2022/10/09 10:00:28;;;;;;;35.70;21.45;;;;;;;32.03;53.65;98405.56;4855559;29;20721;-64
2022/10/09 10:03:16;;;;;;;31.58;21.05;;;;;;;32.10;54.76;98408.47;4857002;29;20056;-65
2022/10/09 10:06:06;;;;;;;29.13;21.73;;;;;;;32.36;54.45;98405.00;4847036;29;20064;-65
2022/10/09 10:08:58;;;;;;;24.70;19.63;;;;;;;32.00;54.67;98403.47;4856672;29;20073;-65
2022/10/09 10:12:02;;;;;;;31.83;22.15;;;;;;;32.32;52.99;98397.78;4855794;29;20061;-64
2022/10/09 10:14:49;;;;;;;30.20;22.08;;;;;;;32.41;53.94;98397.56;4857227;29;20049;-64
2022/10/09 10:17:42;;;;;;;37.33;24.50;;;;;;;32.14;52.47;98391.88;4856689;29;20678;-64
2022/10/09 10:20:26;;;;;;;34.05;22.75;;;;;;;32.30;53.52;98392.59;4855061;29;20077;-65
2022/10/09 10:23:47;;;;;;;33.83;24.08;;;;;;;32.27;52.98;98396.09;4875370;29;20076;-63
2022/10/09 10:26:35;;;;;;;36.53;24.17;;;;;;;31.88;54.27;98398.06;4874873;29;20064;-65
2022/10/09 10:29:43;;;;;;;40.17;25.33;;;;;;;31.61;54.38;98392.34;4859927;29;20067;-64
2022/10/09 10:32:48;;;;;;;34.42;24.20;;;;;;;32.00;55.12;98386.81;4873975;29;20053;-65
2022/10/09 10:35:44;;;;;;;31.00;24.33;;;;;;;32.16;55.00;98387.56;4874882;29;20056;-65
2022/10/09 10:38:26;;;;;;;29.58;24.00;;;;;;;32.26;54.43;98382.59;4844544;29;20450;-64
2022/10/09 10:41:30;;;;;;;38.97;23.90;;;;;;;32.16;56.02;98373.69;4869748;29;20049;-64
2022/10/09 10:44:37;;;;;;;45.97;27.20;;;;;;;32.01;54.70;98380.09;4855026;29;20061;-64
2022/10/09 10:47:34;;;;;;;42.25;26.55;;;;;;;32.17;53.50;98380.84;4860932;29;20061;-65
2022/10/09 10:50:19;;;;;;;36.03;26.60;;;;;;;32.01;54.89;98377.31;4870517;29;20041;-65
2022/10/09 10:53:29;;;;;;;38.83;27.88;;;;;;;32.04;57.11;98384.13;4870130;29;20057;-65
2022/10/09 10:56:30;;;;;;;39.78;26.73;;;;;;;31.95;56.27;98378.78;4871225;29;20068;-64
2022/10/09 10:59:46;;;;;;;43.22;26.92;;;;;;;31.77;55.95;98384.75;4870734;29;20060;-65
2022/10/09 11:02:49;;;;;;;46.28;27.50;;;;;;;31.70;56.10;98373.50;4871484;29;20049;-64
2022/10/09 11:06:00;;;;;;;37.60;26.25;;;;;;;31.57;56.45;98372.03;4871008;29;20061;-63
2022/10/09 11:09:04;;;;;;;48.75;28.60;;;;;;;31.50;55.86;98369.88;4867538;29;20057;-63
2022/10/09 11:12:05;;;;;;;41.40;27.27;;;;;;;31.74;57.63;98374.38;4867593;29;20063;-65
2022/10/09 11:15:08;;;;;;;43.00;29.67;;;;;;;31.49;57.72;98373.03;4857163;29;20619;-64
2022/10/09 11:18:22;;;;;;;38.72;26.47;;;;;;;31.39;57.18;98369.63;4407633;29;10002425;-65
2022/10/09 11:21:16;;;;;;;36.45;25.33;;;;;;;31.33;56.88;98373.81;4869588;29;20057;-65
2022/10/09 11:24:27;;;;;;;39.17;25.55;;;;;;;31.60;56.12;98371.28;4850761;29;20093;-64
2022/10/09 11:27:15;;;;;;;37.00;24.55;;;;;;;31.53;56.04;98374.72;4851408;29;20414;-67
2022/10/09 11:30:21;;;;;;;41.53;25.60;;;;;;;31.63;57.26;98376.13;4850673;29;20263;-64
2022/10/09 11:33:09;;;;;;;35.08;24.98;;;;;;;31.60;55.96;98385.97;4851621;29;20057;-62
2022/10/09 11:36:17;;;;;;;35.30;24.48;;;;;;;31.52;56.01;98377.84;4851089;29;20169;-65
2022/10/09 11:39:17;;;;;;;34.83;23.33;;;;;;;31.51;56.83;98381.78;4835123;29;20050;-64
2022/10/09 11:42:09;;;;;;;34.38;24.23;;;;;;;31.49;59.00;98384.94;4847525;29;20127;-64
2022/10/09 11:44:55;;;;;;;32.53;23.58;;;;;;;31.35;59.21;98387.34;4851367;29;20479;-66
2022/10/09 11:48:10;;;;;;;32.20;24.10;;;;;;;31.31;59.63;98384.47;4824862;29;20068;-65
2022/10/09 11:51:21;;;;;;;35.63;23.13;;;;;;;31.26;59.75;98381.19;4847415;29;20053;-66
2022/10/09 11:54:16;;;;;;;36.10;23.63;;;;;;;31.18;59.58;98386.56;4847839;29;20085;-66
2022/10/09 11:57:05;;;;;;;42.65;24.20;;;;;;;31.16;60.14;98388.88;4849376;29;20045;-65
2022/10/09 12:00:05;;;;;;;38.10;24.58;;;;;;;31.20;59.90;98388.97;4846835;29;20057;-66
2022/10/09 12:02:49;;;;;;;34.20;22.67;;;;;;;31.00;59.81;98391.66;4848314;29;20146;-65
2022/10/09 12:05:46;;;;;;;40.35;23.48;;;;;;;30.96;60.75;98392.75;4848395;29;20053;-64
2022/10/09 12:08:36;;;;;;;33.85;22.58;;;;;;;30.90;61.07;98392.22;4842945;29;20647;-65
2022/10/09 12:11:32;;;;;;;40.83;21.65;;;;;;;30.82;61.25;98395.91;4861625;29;20364;-65
2022/10/09 12:14:11;;;;;;;31.23;23.50;;;;;;;30.93;59.81;98399.78;4848256;29;20278;-65
2022/10/09 12:17:07;;;;;;;38.97;22.65;;;;;;;30.85;61.36;98397.97;4848235;29;20084;-65
2022/10/09 12:19:44;;;;;;;58.33;25.50;;;;;;;30.72;61.33;98404.75;4848410;29;20229;-64
2022/10/09 12:22:46;;;;;;;41.13;25.90;;;;;;;30.67;60.88;98411.38;4864475;29;20478;-65
2022/10/09 12:25:56;;;;;;;45.35;28.67;;;;;;;30.77;60.90;98410.84;4848829;29;20194;-65
2022/10/09 12:29:00;;;;;;;48.60;29.35;;;;;;;30.64;61.18;98412.88;4866241;29;20671;-66
2022/10/09 12:31:43;;;;;;;46.28;27.67;;;;;;;30.52;59.92;98412.16;4846976;29;20053;-66
2022/10/09 12:34:42;;;;;;;43.65;27.55;;;;;;;30.56;60.88;98413.84;4849738;29;20077;-66
2022/10/09 12:37:34;;;;;;;44.92;26.20;;;;;;;30.60;61.80;98420.28;4849823;29;20135;-67
2022/10/09 12:40:31;;;;;;;47.90;26.23;;;;;;;30.54;62.42;98423.69;4849202;29;20060;-67
2022/10/09 12:43:17;;;;;;;51.28;27.65;;;;;;;30.51;61.71;98419.63;4852463;29;20601;-66
2022/10/09 12:46:08;;;;;;;53.92;30.90;;;;;;;30.47;61.20;98423.47;4835008;29;20114;-65
2022/10/09 12:48:50;;;;;;;65.22;32.65;;;;;;;30.47;62.84;98427.03;4852432;29;20117;-70
2022/10/09 12:51:39;;;;;;;57.20;34.22;;;;;;;30.32;62.87;98428.59;4518086;29;10000574;-67
2022/10/09 12:54:25;;;;;;;63.72;34.28;;;;;;;30.32;62.60;98428.59;4852476;29;20089;-67
2022/10/09 12:57:19;;;;;;;52.58;34.25;;;;;;;30.25;63.03;98429.19;4852579;29;20068;-67
2022/10/09 13:00:13;;;;;;;62.53;35.37;;;;;;;30.20;60.86;98432.19;4854263;29;20068;-66
2022/10/09 13:03:02;;;;;;;60.28;33.72;;;;;;;30.19;61.51;98436.13;4852660;29;20053;-67
2022/10/09 13:05:43;;;;;;;62.20;32.47;;;;;;;30.30;62.30;98435.63;4855630;29;20071;-68
2022/10/09 13:08:36;;;;;;;51.72;31.33;;;;;;;29.98;62.51;98447.38;4857066;29;20152;-66